Time;durP1;ratioP1;P1;durP2;ratioP2;P2;SDS_P1;SDS_P2;PMS_P1;PMS_P2;Temp;Humidity;BMP_temperature;BMP_pressure;BME280_temperature;BME280_humidity;BME280_pressure;Samples;Min_cycle;Max_cycle;Signal;HPM_P1;HPM_P2
2022/09/14 00:01:56;;;;;;;8.77;1.83;;;;;;;16.30;100.00;100891.66;5060043;28;20017;-68
2022/09/14 00:04:21;;;;;;;5.70;1.67;;;;;;;16.21;100.00;100894.38;5063897;28;20558;-68
2022/09/14 00:06:47;;;;;;;7.82;1.90;;;;;;;16.17;100.00;100888.22;5057020;28;20112;-68
2022/09/14 00:09:20;;;;;;;3.92;2.00;;;;;;;16.21;100.00;100882.00;5077882;28;20044;-68
2022/09/14 00:11:46;;;;;;;12.17;2.27;;;;;;;16.10;100.00;100887.38;5092391;28;20047;-69
2022/09/14 00:14:11;;;;;;;6.55;2.08;;;;;;;16.16;100.00;100887.31;5081169;28;20032;-69
2022/09/14 00:16:39;;;;;;;4.00;1.65;;;;;;;16.22;100.00;100877.56;5072238;28;20032;-69
2022/09/14 00:19:06;;;;;;;6.65;1.85;;;;;;;16.17;100.00;100886.44;5073523;28;20067;-69
2022/09/14 00:21:34;;;;;;;3.05;1.98;;;;;;;16.19;100.00;100884.63;5087695;28;20434;-70
2022/09/14 00:23:59;;;;;;;3.97;1.77;;;;;;;16.26;100.00;100881.97;5087609;28;20051;-69
2022/09/14 00:26:25;;;;;;;9.82;2.63;;;;;;;16.29;100.00;100887.25;5072782;28;20056;-69
2022/09/14 00:28:56;;;;;;;4.00;2.03;;;;;;;16.25;100.00;100867.81;5074437;28;20028;-70
2022/09/14 00:31:22;;;;;;;6.43;2.15;;;;;;;16.24;100.00;100878.44;5074929;28;20033;-69
2022/09/14 00:33:49;;;;;;;6.30;2.10;;;;;;;16.22;100.00;100866.94;5081262;28;20020;-70
2022/09/14 00:36:18;;;;;;;8.52;2.10;;;;;;;16.21;100.00;100874.03;5083932;28;20020;-69
2022/09/14 00:38:45;;;;;;;4.13;1.85;;;;;;;16.23;100.00;100866.06;5068589;28;20856;-69
2022/09/14 00:41:16;;;;;;;7.72;2.10;;;;;;;16.23;100.00;100863.41;5084196;28;20031;-69
2022/09/14 00:44:02;;;;;;;3.92;2.00;;;;;;;16.23;100.00;100863.41;5091441;28;20492;-68
2022/09/14 00:46:30;;;;;;;8.88;2.25;;;;;;;16.21;100.00;100865.16;5072735;28;20037;-69
2022/09/14 00:48:59;;;;;;;5.97;2.30;;;;;;;16.15;100.00;100856.34;5069440;28;20496;-68
2022/09/14 00:51:26;;;;;;;5.32;2.50;;;;;;;16.13;100.00;100849.31;5078518;28;20028;-69
2022/09/14 00:53:52;;;;;;;12.05;2.65;;;;;;;16.09;100.00;100843.13;5088835;28;20029;-69
2022/09/14 00:56:17;;;;;;;6.25;2.08;;;;;;;16.07;100.00;100850.22;5086089;28;20036;-69
2022/09/14 00:58:46;;;;;;;4.05;2.00;;;;;;;16.19;100.00;100833.31;5089518;28;20105;-69
2022/09/14 01:01:12;;;;;;;11.75;2.45;;;;;;;16.12;100.00;100821.88;5072478;28;20032;-69
2022/09/14 01:03:38;;;;;;;3.47;2.10;;;;;;;16.13;100.00;100826.28;5082952;28;20772;-69
2022/09/14 01:06:15;;;;;;;6.50;2.30;;;;;;;16.14;100.00;100822.75;5085838;28;20020;-69
2022/09/14 01:08:57;;;;;;;12.07;2.58;;;;;;;16.14;100.00;100820.09;5089411;28;20051;-69
2022/09/14 01:11:25;;;;;;;1.98;1.70;;;;;;;16.15;100.00;100818.31;5070575;28;20039;-68
2022/09/14 01:13:59;;;;;;;3.70;1.90;;;;;;;16.13;100.00;100815.69;5070176;28;20115;-68
2022/09/14 01:16:43;;;;;;;7.78;2.08;;;;;;;16.09;100.00;100805.97;5079381;28;20033;-69
2022/09/14 01:19:21;;;;;;;5.05;2.20;;;;;;;16.10;100.00;100806.84;5072009;28;20044;-69
2022/09/14 01:21:49;;;;;;;4.25;1.90;;;;;;;16.11;100.00;100800.66;5072467;28;20032;-70
2022/09/14 01:24:39;;;;;;;11.88;2.50;;;;;;;16.13;100.00;100810.38;5055633;28;20036;-69
2022/09/14 01:27:39;;;;;;;5.43;2.08;;;;;;;16.12;100.00;100805.06;5085288;28;20020;-69
2022/09/14 01:30:09;;;;;;;6.82;2.58;;;;;;;16.14;100.00;100797.97;5073163;28;20028;-70
2022/09/14 01:32:57;;;;;;;7.68;2.28;;;;;;;16.15;100.00;100800.59;5096801;28;20031;-69
2022/09/14 01:35:33;;;;;;;9.07;2.20;;;;;;;16.14;100.00;100797.97;5087574;28;20139;-69
2022/09/14 01:38:06;;;;;;;6.22;2.45;;;;;;;16.12;100.00;100795.31;5093075;28;20070;-69
2022/09/14 01:40:37;;;;;;;7.70;2.42;;;;;;;16.02;100.00;100794.50;5087128;28;20024;-68
2022/09/14 01:43:28;;;;;;;6.68;2.30;;;;;;;16.05;100.00;100798.91;5091099;28;20082;-69
2022/09/14 01:45:59;;;;;;;5.65;2.42;;;;;;;16.14;100.00;100784.69;5078529;28;20027;-69
2022/09/14 01:48:41;;;;;;;5.47;2.67;;;;;;;16.11;100.00;100790.91;5096897;28;20032;-69
2022/09/14 01:51:12;;;;;;;5.85;2.50;;;;;;;16.08;100.00;100788.28;5075650;28;20028;-69
2022/09/14 01:53:43;;;;;;;13.88;2.40;;;;;;;16.09;100.00;100792.69;5082247;28;20030;-70
2022/09/14 01:56:25;;;;;;;5.63;2.75;;;;;;;16.08;100.00;100788.28;5095802;28;20152;-69
2022/09/14 01:58:59;;;;;;;3.10;1.98;;;;;;;16.05;100.00;100780.34;5078142;28;20089;-69
2022/09/14 02:01:28;;;;;;;;;;;;;;;16.03;100.00;100779.44;5075127;28;20035;-69
2022/09/14 02:03:58;;;;;;;4.57;2.25;;;;;;;16.01;100.00;100786.56;5076001;28;19951;-69
2022/09/14 02:06:44;;;;;;;6.55;2.50;;;;;;;15.98;100.00;100774.19;5057277;28;20448;-69
2022/09/14 02:09:15;;;;;;;9.57;2.40;;;;;;;15.93;100.00;100773.34;5074430;28;20094;-69
2022/09/14 02:11:41;;;;;;;6.43;2.35;;;;;;;15.96;100.00;100769.78;5073087;28;20078;-69
2022/09/14 02:14:06;;;;;;;6.88;2.60;;;;;;;15.95;100.00;100773.31;5089091;28;20024;-68
2022/09/14 02:16:32;;;;;;;3.92;2.22;;;;;;;15.91;100.00;100769.84;5087209;28;20046;-69
2022/09/14 02:19:00;;;;;;;9.60;2.72;;;;;;;15.91;100.00;100771.56;5074824;28;20040;-68
2022/09/14 02:21:28;;;;;;;6.68;2.50;;;;;;;15.89;100.00;100768.06;5058158;28;20027;-69
2022/09/14 02:23:54;;;;;;;10.63;3.10;;;;;;;15.94;100.00;100768.91;5086321;28;20085;-69
2022/09/14 02:26:22;;;;;;;3.75;2.10;;;;;;;15.99;100.00;100767.09;5079868;28;20107;-70
2022/09/14 02:28:47;;;;;;;5.80;2.35;;;;;;;16.03;100.00;100768.84;5073239;28;20038;-69
2022/09/14 02:31:39;;;;;;;4.35;2.08;;;;;;;16.10;100.00;100775.88;5088363;28;20024;-69
2022/09/14 02:34:16;;;;;;;4.93;2.05;;;;;;;16.07;100.00;100765.25;5082117;28;20043;-69
2022/09/14 02:37:19;;;;;;;5.38;2.10;;;;;;;16.10;100.00;100762.63;5092866;28;20082;-69
2022/09/14 02:39:59;;;;;;;6.40;2.03;;;;;;;16.08;100.00;100740.50;5082434;28;20040;-69
2022/09/14 02:42:35;;;;;;;3.33;2.03;;;;;;;16.07;100.00;100738.72;5073554;28;20043;-69
2022/09/14 02:45:04;;;;;;;9.93;2.38;;;;;;;16.02;100.00;100730.81;5074143;28;20377;-69
2022/09/14 02:47:49;;;;;;;5.82;2.10;;;;;;;15.98;100.00;100739.69;5077982;28;20059;-68
2022/09/14 02:50:16;;;;;;;5.55;1.88;;;;;;;15.99;100.00;100740.56;5082611;28;20032;-69
2022/09/14 02:52:57;;;;;;;5.47;1.90;;;;;;;15.98;100.00;100725.56;5095396;28;20486;-70
2022/09/14 02:55:28;;;;;;;4.88;1.98;;;;;;;15.96;100.00;100716.72;5089554;28;20042;-69
2022/09/14 02:58:02;;;;;;;3.78;2.15;;;;;;;15.95;100.00;100720.25;5089805;28;20028;-69
2022/09/14 03:00:30;;;;;;;7.57;2.03;;;;;;;15.97;100.00;100718.47;5074751;28;20502;-69
2022/09/14 03:02:55;;;;;;;5.80;2.25;;;;;;;15.98;100.00;100714.94;5091407;28;22041;-69
2022/09/14 03:05:20;;;;;;;4.47;1.92;;;;;;;15.93;100.00;100709.66;5093554;28;20035;-69
2022/09/14 03:07:46;;;;;;;3.15;1.80;;;;;;;15.95;100.00;100718.50;5094957;28;20044;-69
2022/09/14 03:10:11;;;;;;;6.75;1.95;;;;;;;15.96;100.00;100717.56;5077477;28;20027;-69
2022/09/14 03:12:38;;;;;;;4.70;1.40;;;;;;;16.01;100.00;100712.25;5080392;28;20043;-68
2022/09/14 03:15:04;;;;;;;6.10;1.70;;;;;;;16.03;100.00;100715.75;5078743;28;20046;-69
2022/09/14 03:17:30;;;;;;;4.50;1.30;;;;;;;16.01;100.00;100712.25;5081530;28;20032;-69
2022/09/14 03:19:55;;;;;;;3.80;1.52;;;;;;;15.99;100.00;100708.72;5078778;28;20352;-69
2022/09/14 03:22:20;;;;;;;5.43;1.67;;;;;;;15.93;100.00;100706.13;5094686;28;20024;-69
2022/09/14 03:24:46;;;;;;;12.40;1.92;;;;;;;15.88;100.00;100695.53;5092256;28;20024;-69
2022/09/14 03:27:12;;;;;;;5.30;1.92;;;;;;;15.87;100.00;100698.19;5056555;28;20491;-69
2022/09/14 03:29:37;;;;;;;8.70;2.33;;;;;;;15.83;100.00;100692.91;5071138;28;20024;-69
2022/09/14 03:32:02;;;;;;;5.93;1.40;;;;;;;15.84;100.00;100692.03;5088726;28;20059;-69
2022/09/14 03:34:27;;;;;;;6.85;1.90;;;;;;;15.87;100.00;100691.13;5080457;28;20529;-69
2022/09/14 03:36:53;;;;;;;7.07;1.95;;;;;;;15.87;100.00;100690.22;5074290;28;20545;-69
2022/09/14 03:39:18;;;;;;;4.90;1.60;;;;;;;15.89;100.00;100691.13;5074027;28;20031;-69
2022/09/14 03:41:43;;;;;;;6.03;2.10;;;;;;;15.94;100.00;100694.59;5073978;28;20025;-67
2022/09/14 03:44:09;;;;;;;6.05;2.00;;;;;;;15.93;100.00;100687.56;5073846;28;20024;-69
2022/09/14 03:46:34;;;;;;;9.88;2.10;;;;;;;15.86;100.00;100676.09;5072839;28;20039;-70
2022/09/14 03:48:59;;;;;;;5.97;2.38;;;;;;;15.83;100.00;100676.13;5074228;28;20082;-68
2022/09/14 03:51:25;;;;;;;10.20;2.70;;;;;;;15.86;100.00;100678.75;5073567;28;20360;-68
2022/09/14 03:53:51;;;;;;;9.57;2.22;;;;;;;15.92;100.00;100672.50;5073968;28;20369;-69
2022/09/14 03:56:18;;;;;;;4.75;2.00;;;;;;;15.94;100.00;100678.66;5073783;28;20369;-69
2022/09/14 03:58:46;;;;;;;8.07;2.45;;;;;;;15.88;100.00;100676.09;5073469;28;20540;-68
2022/09/14 04:01:14;;;;;;;6.22;2.10;;;;;;;15.86;100.00;100676.09;5071733;28;20051;-69
2022/09/14 04:03:40;;;;;;;4.05;2.58;;;;;;;15.81;100.00;100676.13;5074446;28;20019;-69
2022/09/14 04:06:07;;;;;;;5.95;2.33;;;;;;;15.76;100.00;100680.56;5075805;28;20480;-69
2022/09/14 04:08:34;;;;;;;4.40;2.03;;;;;;;15.77;100.00;100671.69;5079485;28;20098;-69
2022/09/14 04:11:00;;;;;;;6.22;1.80;;;;;;;15.75;100.00;100677.91;5073370;28;20143;-69
2022/09/14 04:13:25;;;;;;;2.75;1.40;;;;;;;15.76;100.00;100685.88;5073488;28;20618;-70
2022/09/14 04:15:58;;;;;;;6.80;1.50;;;;;;;15.76;100.00;100688.53;5073371;28;20056;-69
2022/09/14 04:18:24;;;;;;;3.72;1.40;;;;;;;15.84;100.00;100692.03;5073496;28;20033;-70
2022/09/14 04:20:57;;;;;;;3.15;1.42;;;;;;;15.81;100.00;100684.06;5076454;28;20027;-68
2022/09/14 04:23:24;;;;;;;2.80;1.30;;;;;;;15.76;100.00;100685.88;5076429;28;20032;-68
2022/09/14 04:25:50;;;;;;;3.42;1.33;;;;;;;15.77;100.00;100682.31;5077475;28;20479;-68
2022/09/14 04:28:16;;;;;;;5.38;1.90;;;;;;;15.75;100.00;100678.81;5075107;28;20025;-69
2022/09/14 04:30:41;;;;;;;5.50;1.52;;;;;;;15.76;100.00;100685.88;5074314;28;20034;-70
2022/09/14 04:33:07;;;;;;;6.72;1.65;;;;;;;15.74;100.00;100682.34;5076201;28;20434;-70
2022/09/14 04:35:32;;;;;;;3.83;1.02;;;;;;;15.79;100.00;100674.34;5071470;28;20028;-69
2022/09/14 04:37:57;;;;;;;5.13;1.35;;;;;;;15.80;100.00;100678.78;5073212;28;20024;-69
2022/09/14 04:40:23;;;;;;;1.38;0.90;;;;;;;15.77;100.00;100676.13;5074769;28;20070;-68
2022/09/14 04:42:48;;;;;;;5.95;1.17;;;;;;;15.81;100.00;100677.91;5072970;28;20028;-69
2022/09/14 04:45:14;;;;;;;2.83;1.10;;;;;;;15.81;100.00;100675.25;5080823;28;20020;-69
2022/09/14 04:47:39;;;;;;;1.92;0.88;;;;;;;15.81;100.00;100683.22;5081855;28;20057;-68
2022/09/14 04:50:05;;;;;;;2.78;1.00;;;;;;;15.79;100.00;100680.53;5086540;28;20027;-68
2022/09/14 04:52:30;;;;;;;3.97;0.95;;;;;;;15.78;100.00;100678.78;5074936;28;20070;-69
2022/09/14 04:54:55;;;;;;;6.32;1.92;;;;;;;15.76;100.00;100680.56;5070816;28;20054;-68
2022/09/14 04:57:21;;;;;;;4.10;1.38;;;;;;;15.77;100.00;100671.69;5079103;28;20115;-69
2022/09/14 04:59:46;;;;;;;9.18;1.40;;;;;;;15.76;100.00;100675.25;5077144;28;20430;-69
2022/09/14 05:02:11;;;;;;;3.10;0.95;;;;;;;15.72;100.00;100662.91;5083743;28;20039;-69
2022/09/14 05:04:37;;;;;;;4.95;1.23;;;;;;;15.70;100.00;100667.34;5072177;28;20480;-69
2022/09/14 05:07:02;;;;;;;5.50;1.48;;;;;;;15.66;100.00;100653.22;5070037;28;20119;-69
2022/09/14 05:09:28;;;;;;;4.82;1.40;;;;;;;15.65;100.00;100662.09;5069275;28;20071;-69
2022/09/14 05:11:53;;;;;;;6.57;1.00;;;;;;;15.62;100.00;100656.78;5065361;28;20115;-69
2022/09/14 05:14:18;;;;;;;3.60;1.10;;;;;;;15.60;100.00;100660.31;5072438;28;20020;-69
2022/09/14 05:16:44;;;;;;;4.93;1.05;;;;;;;15.62;100.00;100651.47;5072901;28;20035;-68
2022/09/14 05:19:12;;;;;;;3.38;1.10;;;;;;;15.65;100.00;100659.44;5072225;28;20032;-69
2022/09/14 05:21:38;;;;;;;5.00;1.85;;;;;;;15.64;100.00;100664.72;5055399;28;20028;-68
2022/09/14 05:24:15;;;;;;;6.53;1.33;;;;;;;15.62;100.00;100666.53;5064266;28;20033;-68
2022/09/14 05:26:42;;;;;;;4.85;1.23;;;;;;;15.61;100.00;100665.66;5081097;28;20031;-69
2022/09/14 05:29:11;;;;;;;8.00;1.20;;;;;;;15.57;100.00;100668.31;5073378;28;20028;-70
2022/09/14 05:31:37;;;;;;;12.38;1.30;;;;;;;15.54;100.00;100663.03;5075522;28;20548;-70
2022/09/14 05:34:02;;;;;;;7.57;1.70;;;;;;;15.56;100.00;100666.53;5077530;28;20024;-70
2022/09/14 05:36:27;;;;;;;4.80;1.38;;;;;;;15.58;100.00;100670.09;5072248;28;20396;-69
2022/09/14 05:38:53;;;;;;;3.35;1.33;;;;;;;15.54;100.00;100658.59;5071763;28;20056;-69
2022/09/14 05:41:18;;;;;;;6.22;1.65;;;;;;;15.51;100.00;100651.53;5070777;28;20043;-69
2022/09/14 05:43:44;;;;;;;9.10;1.42;;;;;;;15.55;100.00;100654.19;5071949;28;20061;-70
2022/09/14 05:46:13;;;;;;;6.15;1.60;;;;;;;15.60;100.00;100655.03;5068954;28;20032;-69
2022/09/14 05:48:39;;;;;;;7.07;1.60;;;;;;;15.66;100.00;100666.47;5068182;28;20416;-76
2022/09/14 05:51:08;;;;;;;7.72;1.85;;;;;;;15.68;100.00;100667.34;5068177;28;20067;-68
2022/09/14 05:53:34;;;;;;;3.53;1.83;;;;;;;15.73;100.00;100659.34;5070276;28;20032;-69
2022/09/14 05:55:59;;;;;;;8.10;1.63;;;;;;;15.76;100.00;100664.66;5072171;28;20081;-68
2022/09/14 05:58:26;;;;;;;7.15;1.67;;;;;;;15.78;100.00;100665.50;5074599;28;20058;-68
2022/09/14 06:00:51;;;;;;;10.77;1.60;;;;;;;15.79;100.00;100663.72;5072527;28;20028;-70
2022/09/14 06:03:16;;;;;;;6.20;1.73;;;;;;;15.78;100.00;100660.19;5068569;28;20036;-69
2022/09/14 06:05:42;;;;;;;7.95;2.55;;;;;;;15.75;100.00;100664.63;5069252;28;20074;-69
2022/09/14 06:08:07;;;;;;;7.80;1.60;;;;;;;15.72;100.00;100670.88;5076786;28;20049;-67
2022/09/14 06:10:32;;;;;;;11.00;1.27;;;;;;;15.70;100.00;100672.66;5091999;28;20024;-68
2022/09/14 06:12:58;;;;;;;6.93;1.63;;;;;;;15.71;100.00;100673.50;5077296;28;20111;-68
2022/09/14 06:15:24;;;;;;;11.38;1.92;;;;;;;15.69;100.00;100676.19;5076094;28;20484;-68
2022/09/14 06:17:49;;;;;;;6.30;1.80;;;;;;;15.68;100.00;100677.97;5075479;28;20127;-68
2022/09/14 06:20:14;;;;;;;5.50;1.50;;;;;;;15.67;100.00;100670.88;5055970;28;20498;-68
2022/09/14 06:22:40;;;;;;;6.97;1.90;;;;;;;15.66;100.00;100662.94;5074728;28;20025;-68
2022/09/14 06:25:05;;;;;;;6.60;1.52;;;;;;;15.61;100.00;100655.03;5074998;28;20020;-67
2022/09/14 06:27:31;;;;;;;14.65;4.32;;;;;;;15.62;100.00;100642.66;5072089;28;20028;-66
2022/09/14 06:29:56;;;;;;;6.47;1.73;;;;;;;15.61;100.00;100640.88;5070363;28;20128;-68
2022/09/14 06:32:22;;;;;;;7.57;2.10;;;;;;;15.63;100.00;100657.69;5055628;28;20455;-69
2022/09/14 06:34:47;;;;;;;8.23;1.63;;;;;;;15.68;100.00;100655.84;5074686;28;20036;-69
2022/09/14 06:37:12;;;;;;;5.72;1.95;;;;;;;15.70;100.00;100651.44;5067834;28;20093;-69
2022/09/14 06:39:38;;;;;;;4.38;1.80;;;;;;;15.72;100.00;100656.72;5074366;28;20028;-68
2022/09/14 06:42:04;;;;;;;8.30;1.73;;;;;;;15.73;100.00;100654.03;5070997;28;20047;-70
2022/09/14 06:44:29;;;;;;;5.72;1.90;;;;;;;15.81;100.00;100656.69;5073007;28;20108;-69
2022/09/14 06:46:54;;;;;;;10.65;2.20;;;;;;;15.79;100.00;100659.31;5077593;28;20031;-69
2022/09/14 06:49:21;;;;;;;5.63;2.05;;;;;;;15.81;100.00;100646.94;5075171;28;20051;-69
2022/09/14 06:51:49;;;;;;;4.63;2.00;;;;;;;15.83;100.00;100639.84;5074465;28;20089;-69
2022/09/14 06:54:16;;;;;;;3.72;1.70;;;;;;;15.88;100.00;100649.56;5069410;28;20021;-69
2022/09/14 06:56:43;;;;;;;12.07;2.10;;;;;;;15.93;100.00;100645.09;5055267;28;20029;-68
2022/09/14 06:59:11;;;;;;;9.68;2.85;;;;;;;15.93;100.00;100653.91;5072671;28;20025;-68
2022/09/14 07:01:37;;;;;;;9.90;2.30;;;;;;;15.89;100.00;100651.31;5073655;28;20032;-69
2022/09/14 07:04:02;;;;;;;6.25;2.28;;;;;;;15.89;100.00;100648.66;5074498;28;20020;-69
2022/09/14 07:06:38;;;;;;;2.10;1.90;;;;;;;15.92;100.00;100638.00;5075336;28;20035;-68
2022/09/14 07:09:04;;;;;;;10.05;1.77;;;;;;;15.92;100.00;100646.84;5069427;28;20044;-69
2022/09/14 07:11:30;;;;;;;9.98;1.85;;;;;;;15.85;100.00;100643.34;5074712;28;20036;-69
2022/09/14 07:13:59;;;;;;;6.82;2.08;;;;;;;15.84;100.00;100646.94;5073726;28;20024;-67
2022/09/14 07:16:26;;;;;;;10.00;1.92;;;;;;;15.84;100.00;100644.28;5074515;28;20032;-68
2022/09/14 07:18:55;;;;;;;8.23;1.67;;;;;;;15.81;100.00;100636.31;5054237;28;20387;-70
2022/09/14 07:21:22;;;;;;;6.30;2.25;;;;;;;15.81;100.00;100641.63;5054045;28;20034;-70
2022/09/14 07:23:47;;;;;;;6.68;2.55;;;;;;;15.88;100.00;100652.19;5069699;28;20020;-68
2022/09/14 07:26:17;;;;;;;5.80;2.00;;;;;;;15.91;100.00;100654.81;5073232;28;20034;-69
2022/09/14 07:28:45;;;;;;;5.63;2.35;;;;;;;15.94;100.00;100655.69;5074592;28;20464;-68
2022/09/14 07:31:25;;;;;;;10.57;2.63;;;;;;;15.98;100.00;100653.91;5074141;28;20082;-70
2022/09/14 07:33:53;;;;;;;9.52;2.75;;;;;;;16.01;100.00;100660.03;5054205;28;20480;-69
2022/09/14 07:36:19;;;;;;;7.75;2.08;;;;;;;15.94;100.00;100653.03;5073127;28;20036;-69
2022/09/14 07:38:45;;;;;;;7.20;2.10;;;;;;;16.00;100.00;100660.91;5072681;28;20384;-70
2022/09/14 07:41:10;;;;;;;5.53;2.17;;;;;;;16.02;100.00;100668.91;5073794;28;20460;-69
2022/09/14 07:43:35;;;;;;;5.45;2.20;;;;;;;15.99;100.00;100663.59;5075358;28;20133;-69
2022/09/14 07:46:03;;;;;;;6.75;2.50;;;;;;;15.99;100.00;100658.28;5078194;28;20021;-69
2022/09/14 07:48:29;;;;;;;10.52;2.78;;;;;;;15.99;100.00;100650.31;5073257;28;20047;-68
2022/09/14 07:51:04;;;;;;;10.05;3.42;;;;;;;16.00;100.00;100660.06;5072383;28;20020;-68
2022/09/14 07:53:30;;;;;;;7.22;2.03;;;;;;;15.99;100.00;100645.91;5055839;28;20530;-68
2022/09/14 07:56:00;;;;;;;6.78;2.78;;;;;;;16.01;100.00;100636.16;5054698;28;20020;-68
2022/09/14 07:58:27;;;;;;;14.93;2.42;;;;;;;16.05;100.00;100634.34;5071861;28;20056;-69
2022/09/14 08:00:58;;;;;;;8.82;2.40;;;;;;;16.08;100.00;100630.81;5055742;28;20024;-68
2022/09/14 08:03:23;;;;;;;3.67;2.13;;;;;;;16.13;100.00;100629.84;5056445;28;20100;-68
2022/09/14 08:05:48;;;;;;;5.07;2.20;;;;;;;16.14;100.00;100639.59;5073060;28;20104;-68
2022/09/14 08:08:14;;;;;;;9.70;2.92;;;;;;;16.14;100.00;100642.25;5071622;28;20374;-68
2022/09/14 08:10:39;;;;;;;7.35;2.42;;;;;;;16.15;100.00;100643.97;5072345;28;20020;-68
2022/09/14 08:13:05;;;;;;;13.45;3.22;;;;;;;16.16;100.00;100647.53;5070916;28;20033;-68
2022/09/14 08:15:30;;;;;;;6.93;2.17;;;;;;;16.24;100.00;100639.50;5073276;28;20032;-69
2022/09/14 08:17:56;;;;;;;6.88;2.90;;;;;;;16.30;100.00;100639.41;5072586;28;20020;-69
2022/09/14 08:20:22;;;;;;;6.85;2.10;;;;;;;16.32;100.00;100633.19;5072721;28;20024;-69
2022/09/14 08:22:47;;;;;;;7.13;3.22;;;;;;;16.32;100.00;100630.53;5071544;28;20510;-69
2022/09/14 08:25:13;;;;;;;13.50;2.63;;;;;;;16.38;100.00;100629.59;5072144;28;20035;-68
2022/09/14 08:27:38;;;;;;;8.77;1.88;;;;;;;16.41;100.00;100634.84;5072963;28;20043;-69
2022/09/14 08:30:05;;;;;;;16.33;2.50;;;;;;;16.47;100.00;100640.13;5072953;28;20056;-68
2022/09/14 08:32:30;;;;;;;5.43;1.90;;;;;;;16.46;100.00;100640.13;5072067;28;20124;-69
2022/09/14 08:34:56;;;;;;;3.92;1.83;;;;;;;16.56;100.00;100641.78;5070455;28;20096;-69
2022/09/14 08:37:21;;;;;;;4.55;1.60;;;;;;;16.58;100.00;100641.78;5069974;28;20032;-68
2022/09/14 08:39:46;;;;;;;11.32;2.05;;;;;;;16.52;100.00;100645.38;5072216;28;20078;-69
2022/09/14 08:42:18;;;;;;;3.90;1.63;;;;;;;16.54;100.00;100642.72;5071767;28;20154;-69
2022/09/14 08:44:50;;;;;;;7.68;1.95;;;;;;;16.61;100.00;100639.09;5069666;28;20032;-69
2022/09/14 08:47:37;;;;;;;8.07;2.28;;;;;;;16.61;100.00;100631.97;5069596;28;20039;-69
2022/09/14 08:50:09;;;;;;;8.38;1.73;;;;;;;16.59;100.00;100630.25;5071208;28;20111;-68
2022/09/14 08:52:51;;;;;;;7.32;2.17;;;;;;;16.63;100.00;100637.28;5072411;28;20028;-69
2022/09/14 08:55:45;;;;;;;3.63;1.38;;;;;;;16.66;100.00;100637.25;5072181;28;20029;-70
2022/09/14 08:58:48;;;;;;;6.75;1.73;;;;;;;16.63;100.00;100632.84;5068847;28;20021;-69
2022/09/14 09:01:16;;;;;;;8.98;1.90;;;;;;;16.62;100.00;100635.53;5071243;28;20507;-69
2022/09/14 09:04:00;;;;;;;5.13;2.05;;;;;;;16.67;100.00;100633.69;5069270;28;20104;-69
2022/09/14 09:06:38;;;;;;;4.38;1.85;;;;;;;16.67;100.00;100646.97;5071041;28;20029;-69
2022/09/14 09:09:39;;;;;;;7.00;2.50;;;;;;;16.72;100.00;100645.13;5070248;28;20131;-68
2022/09/14 09:12:05;;;;;;;15.55;1.80;;;;;;;16.76;100.00;100648.66;5071865;28;20031;-69
2022/09/14 09:14:45;;;;;;;5.22;1.17;;;;;;;16.70;100.00;100641.63;5072527;28;20033;-68
2022/09/14 09:17:38;;;;;;;4.30;1.40;;;;;;;16.72;100.00;100634.50;5071691;28;20081;-68
2022/09/14 09:20:14;;;;;;;6.43;1.27;;;;;;;16.71;100.00;100639.84;5071998;28;20127;-68
2022/09/14 09:22:44;;;;;;;2.40;1.00;;;;;;;16.74;100.00;100640.69;5071959;28;20020;-69
2022/09/14 09:25:27;;;;;;;5.40;1.23;;;;;;;16.72;100.00;100645.13;5070352;28;20028;-69
2022/09/14 09:27:56;;;;;;;6.38;1.10;;;;;;;16.71;100.00;100635.41;5069998;28;20040;-69
2022/09/14 09:30:22;;;;;;;5.13;1.38;;;;;;;16.75;100.00;100637.13;5070197;28;20028;-69
2022/09/14 09:32:47;;;;;;;3.75;1.45;;;;;;;16.81;100.00;100629.09;5070999;28;20051;-69
2022/09/14 09:35:20;;;;;;;4.80;1.30;;;;;;;16.82;100.00;100633.50;5071285;28;20082;-70
2022/09/14 09:37:46;;;;;;;5.82;1.75;;;;;;;16.82;100.00;100632.63;5071237;28;20040;-70
2022/09/14 09:40:23;;;;;;;10.48;1.50;;;;;;;16.86;100.00;100634.34;5071588;28;20097;-69
2022/09/14 09:43:14;;;;;;;7.57;1.77;;;;;;;16.81;100.00;100626.44;5070509;28;20028;-70
2022/09/14 09:45:49;;;;;;;7.35;1.70;;;;;;;16.79;100.00;100633.56;5071977;28;20532;-70
2022/09/14 09:48:18;;;;;;;6.40;1.73;;;;;;;16.79;100.00;100617.63;5074230;28;20020;-69
2022/09/14 09:51:32;;;;;;;2.17;1.52;;;;;;;16.88;100.00;100621.91;5073617;28;20392;-68
2022/09/14 09:54:12;;;;;;;3.00;1.40;;;;;;;16.93;100.00;100619.22;4972056;28;20030;-68
2022/09/14 09:56:50;;;;;;;5.38;1.40;;;;;;;16.97;100.00;100616.53;4980348;28;20078;-69
2022/09/14 09:59:38;;;;;;;7.40;1.30;;;;;;;17.01;100.00;100622.66;5050907;28;20098;-68
2022/09/14 10:02:22;;;;;;;4.63;1.35;;;;;;;16.98;100.00;100622.69;5073742;28;20027;-69
2022/09/14 10:05:12;;;;;;;6.70;1.27;;;;;;;17.05;100.00;100626.16;5075671;28;20047;-69
2022/09/14 10:07:49;;;;;;;4.28;1.33;;;;;;;17.05;100.00;100619.06;5068527;28;20091;-70
2022/09/14 10:10:17;;;;;;;7.53;1.20;;;;;;;17.14;100.00;100626.91;5058139;28;20100;-69
2022/09/14 10:12:52;;;;;;;6.47;1.25;;;;;;;17.16;100.00;100630.44;5057766;28;20032;-69
2022/09/14 10:15:32;;;;;;;4.13;0.88;;;;;;;17.13;100.00;100633.16;5055172;28;20029;-70
2022/09/14 10:18:10;;;;;;;9.15;1.40;;;;;;;17.11;100.00;100623.44;5047286;28;20029;-69
2022/09/14 10:20:41;;;;;;;8.00;1.63;;;;;;;17.17;100.00;100629.53;5053861;28;20039;-70
2022/09/14 10:23:18;;;;;;;7.03;1.52;;;;;;;17.16;100.00;100626.91;5047097;28;20044;-69
2022/09/14 10:25:46;;;;;;;9.77;2.03;;;;;;;17.27;100.00;100629.38;5053264;28;20033;-68
2022/09/14 10:28:27;;;;;;;5.63;1.17;;;;;;;17.35;100.00;100630.19;5053835;28;20039;-69
2022/09/14 10:31:00;;;;;;;5.90;1.60;;;;;;;17.30;100.00;100619.59;5053919;28;20051;-70
2022/09/14 10:33:25;;;;;;;4.30;1.27;;;;;;;17.35;100.00;100615.09;5053175;28;20031;-70
2022/09/14 10:36:04;;;;;;;3.95;1.42;;;;;;;17.46;100.00;100614.91;5047328;28;20033;-69
2022/09/14 10:38:44;;;;;;;9.15;1.52;;;;;;;17.47;100.00;100616.69;5048910;28;20030;-69
2022/09/14 10:41:30;;;;;;;8.27;2.83;;;;;;;17.48;100.00;100618.41;5040476;28;20123;-69
2022/09/14 10:44:18;;;;;;;6.40;1.42;;;;;;;17.50;100.00;100616.63;5042721;28;20386;-68
2022/09/14 10:46:54;;;;;;;4.95;1.45;;;;;;;17.53;100.00;100611.25;5046612;28;20057;-69
2022/09/14 10:49:40;;;;;;;3.17;1.15;;;;;;;17.55;100.00;100613.00;5047680;28;20025;-70
2022/09/14 10:52:18;;;;;;;6.95;1.08;;;;;;;17.59;100.00;100615.59;5047592;28;20033;-70
2022/09/14 10:55:06;;;;;;;9.40;1.45;;;;;;;17.62;100.00;100622.66;5046141;28;20025;-70
2022/09/14 10:57:52;;;;;;;4.05;0.90;;;;;;;17.70;100.00;100620.72;5041546;28;20029;-70
2022/09/14 11:00:21;;;;;;;6.53;1.38;;;;;;;17.74;100.00;100613.59;5046917;28;20411;-69
2022/09/14 11:03:21;;;;;;;3.85;1.38;;;;;;;17.93;100.00;100608.84;5029902;28;20026;-69
2022/09/14 11:06:09;;;;;;;7.28;1.20;;;;;;;18.12;100.00;100612.97;5028691;28;20477;-69
2022/09/14 11:08:45;;;;;;;3.38;1.13;;;;;;;18.38;100.00;100608.94;5054698;28;20041;-69
2022/09/14 11:11:55;;;;;;;3.75;1.05;;;;;;;18.45;100.00;100607.00;5061877;28;20131;-68
2022/09/14 11:14:42;;;;;;;4.63;1.05;;;;;;;18.93;100.00;100603.38;5049099;28;20040;-69
2022/09/14 11:17:19;;;;;;;6.60;1.40;;;;;;;19.25;100.00;100604.44;5071843;28;20042;-69
2022/09/14 11:20:03;;;;;;;5.47;0.80;;;;;;;19.58;100.00;100609.91;5073351;28;20036;-70
2022/09/14 11:22:47;;;;;;;3.63;1.10;;;;;;;19.75;100.00;100612.13;5073375;28;20391;-69
2022/09/14 11:25:21;;;;;;;6.47;1.05;;;;;;;19.83;100.00;100621.75;5073395;28;20020;-69
2022/09/14 11:27:56;;;;;;;4.38;1.42;;;;;;;19.64;100.00;100613.28;5074160;28;20024;-69
2022/09/14 11:30:29;;;;;;;6.53;1.58;;;;;;;19.63;100.00;100614.19;5071764;28;20369;-69
2022/09/14 11:33:02;;;;;;;4.63;1.00;;;;;;;19.72;100.00;100613.06;5073160;28;20420;-69
2022/09/14 11:35:47;;;;;;;4.33;1.20;;;;;;;20.04;100.00;100612.28;5072854;28;20104;-69